Time;durP1;ratioP1;P1;durP2;ratioP2;P2;SDS_P1;SDS_P2;PMS_P1;PMS_P2;Temp;Humidity;BMP_temperature;BMP_pressure;BME280_temperature;BME280_humidity;BME280_pressure;Samples;Min_cycle;Max_cycle;Signal;HPM_P1;HPM_P2
2023/04/14 00:04:13;;;;;;;;;;;18.40;46.30;;;;;;10366562;28;1050;-72
2023/04/14 00:09:09;;;;;;;;;;;18.40;46.20;;;;;;10366886;28;1921;-72
2023/04/14 00:14:05;;;;;;;;;;;18.40;46.20;;;;;;10366782;28;890;-71
2023/04/14 00:19:01;;;;;;;;;;;18.40;46.30;;;;;;10366063;28;893;-71
2023/04/14 00:23:56;;;;;;;;;;;18.40;46.20;;;;;;10366697;28;1070;-71
2023/04/14 00:28:52;;;;;;;;;;;18.40;46.20;;;;;;10366401;28;1951;-72
2023/04/14 00:33:47;;;;;;;;;;;18.40;46.20;;;;;;10367032;28;841;-71
2023/04/14 00:38:42;;;;;;;;;;;18.30;46.20;;;;;;10366303;28;773;-71
2023/04/14 00:43:38;;;;;;;;;;;18.30;46.10;;;;;;10366195;28;987;-71
2023/04/14 00:48:33;;;;;;;;;;;18.40;46.10;;;;;;10366783;28;1897;-71
2023/04/14 00:53:28;;;;;;;;;;;18.30;46.10;;;;;;10366645;28;798;-71
2023/04/14 00:58:24;;;;;;;;;;;18.30;46.10;;;;;;10365849;28;1298;-72
2023/04/14 01:03:20;;;;;;;;;;;18.30;46.10;;;;;;10365818;28;770;-71
2023/04/14 01:08:15;;;;;;;;;;;18.40;46.00;;;;;;10372409;28;1913;-71
2023/04/14 01:13:11;;;;;;;;;;;18.30;46.00;;;;;;10374602;28;847;-71
2023/04/14 01:18:06;;;;;;;;;;;18.30;46.00;;;;;;10373458;28;893;-71
2023/04/14 01:23:02;;;;;;;;;;;18.30;46.00;;;;;;10373274;28;865;-72
2023/04/14 01:27:57;;;;;;;;;;;18.30;46.10;;;;;;10372992;28;1902;-72
2023/04/14 01:32:52;;;;;;;;;;;18.30;46.10;;;;;;10373493;28;854;-72
2023/04/14 01:37:48;;;;;;;;;;;18.30;46.10;;;;;;10372705;28;890;-72
2023/04/14 01:42:43;;;;;;;;;;;18.30;46.20;;;;;;10371961;28;940;-71
2023/04/14 01:47:39;;;;;;;;;;;18.20;46.10;;;;;;10355201;28;1902;-71
2023/04/14 01:52:34;;;;;;;;;;;18.30;46.10;;;;;;10372138;28;843;-71
2023/04/14 01:57:29;;;;;;;;;;;18.30;46.10;;;;;;10371682;28;1240;-71
2023/04/14 02:02:25;;;;;;;;;;;18.20;46.10;;;;;;10372378;28;872;-71
2023/04/14 02:07:20;;;;;;;;;;;18.30;46.10;;;;;;10372185;28;1910;-71
2023/04/14 02:12:16;;;;;;;;;;;18.20;46.00;;;;;;10371398;28;778;-72
2023/04/14 02:17:12;;;;;;;;;;;18.20;46.00;;;;;;10370052;28;851;-71
2023/04/14 02:22:07;;;;;;;;;;;18.20;46.00;;;;;;10371099;28;855;-71
2023/04/14 02:27:03;;;;;;;;;;;18.20;46.10;;;;;;10371462;28;1953;-71
2023/04/14 02:31:58;;;;;;;;;;;18.20;46.10;;;;;;10371317;28;918;-71
2023/04/14 02:36:53;;;;;;;;;;;18.20;46.10;;;;;;10370982;28;913;-72
2023/04/14 02:41:49;;;;;;;;;;;18.20;46.10;;;;;;10370215;28;802;-72
2023/04/14 02:46:44;;;;;;;;;;;18.20;46.10;;;;;;10369848;28;1901;-71
2023/04/14 02:51:39;;;;;;;;;;;18.20;46.20;;;;;;10370011;28;936;-72
2023/04/14 02:56:35;;;;;;;;;;;18.20;46.10;;;;;;10369717;28;1271;-71
2023/04/14 03:01:31;;;;;;;;;;;18.20;46.00;;;;;;10369401;28;849;-71
2023/04/14 03:06:27;;;;;;;;;;;18.20;46.00;;;;;;10369804;28;873;-71
2023/04/14 03:11:22;;;;;;;;;;;18.20;46.00;;;;;;10369710;28;942;-72
2023/04/14 03:16:18;;;;;;;;;;;18.20;46.00;;;;;;10368240;28;825;-71
2023/04/14 03:21:15;;;;;;;;;;;18.10;46.00;;;;;;10368717;28;856;-71
2023/04/14 03:26:11;;;;;;;;;;;18.10;46.00;;;;;;10369071;28;920;-71
2023/04/14 03:31:06;;;;;;;;;;;18.20;46.00;;;;;;10367417;28;1977;-71
2023/04/14 03:36:02;;;;;;;;;;;18.10;46.00;;;;;;10368123;28;872;-71
2023/04/14 03:40:58;;;;;;;;;;;18.20;46.10;;;;;;10367940;28;862;-71
2023/04/14 03:45:54;;;;;;;;;;;18.20;45.90;;;;;;10367804;28;801;-71
2023/04/14 03:50:50;;;;;;;;;;;18.10;45.90;;;;;;10367611;28;1902;-72
2023/04/14 03:55:45;;;;;;;;;;;18.20;46.00;;;;;;10367332;28;1285;-71
2023/04/14 04:00:41;;;;;;;;;;;18.20;45.90;;;;;;10367922;28;774;-71
2023/04/14 04:05:38;;;;;;;;;;;18.20;46.00;;;;;;10367273;28;849;-71
2023/04/14 04:10:33;;;;;;;;;;;18.20;45.90;;;;;;10367534;28;1918;-71
2023/04/14 04:15:28;;;;;;;;;;;18.20;45.80;;;;;;10366841;28;768;-71
2023/04/14 04:20:24;;;;;;;;;;;18.20;45.80;;;;;;10367338;28;857;-71
2023/04/14 04:25:19;;;;;;;;;;;18.30;45.90;;;;;;10367104;28;1703;-71
2023/04/14 04:30:15;;;;;;;;;;;18.30;45.80;;;;;;10366569;28;1967;-71
2023/04/14 04:35:10;;;;;;;;;;;18.30;45.80;;;;;;10366398;28;822;-71
2023/04/14 04:40:06;;;;;;;;;;;18.30;45.80;;;;;;10367852;28;890;-72
2023/04/14 04:45:01;;;;;;;;;;;18.30;45.80;;;;;;10375361;28;953;-71
2023/04/14 04:49:56;;;;;;;;;;;18.30;45.70;;;;;;10375204;28;1973;-71
2023/04/14 04:54:52;;;;;;;;;;;18.40;45.80;;;;;;10374970;28;1284;-71
2023/04/14 04:59:47;;;;;;;;;;;18.40;45.70;;;;;;10374908;28;880;-72
2023/04/14 05:04:43;;;;;;;;;;;18.40;45.70;;;;;;10374037;28;936;-72
2023/04/14 05:09:38;;;;;;;;;;;18.30;45.70;;;;;;10373829;28;1975;-72
2023/04/14 05:14:33;;;;;;;;;;;18.30;45.70;;;;;;10373084;28;873;-70
2023/04/14 05:19:29;;;;;;;;;;;18.30;45.70;;;;;;10374063;28;806;-71
2023/04/14 05:24:24;;;;;;;;;;;18.40;45.70;;;;;;10374012;28;921;-72
2023/04/14 05:29:20;;;;;;;;;;;18.40;45.70;;;;;;10373179;28;1902;-71
2023/04/14 05:34:15;;;;;;;;;;;18.40;45.60;;;;;;10372910;28;945;-70
2023/04/14 05:39:12;;;;;;;;;;;18.40;45.70;;;;;;10373389;28;778;-70
2023/04/14 05:44:07;;;;;;;;;;;18.40;45.70;;;;;;10372467;28;953;-71
2023/04/14 05:49:03;;;;;;;;;;;18.40;45.60;;;;;;10372888;28;1969;-72
2023/04/14 05:53:59;;;;;;;;;;;18.40;45.50;;;;;;10371962;28;910;-72
2023/04/14 05:58:55;;;;;;;;;;;18.40;45.60;;;;;;10371180;28;1496;-73
2023/04/14 06:03:50;;;;;;;;;;;18.50;45.70;;;;;;10371884;28;840;-72
2023/04/14 06:08:47;;;;;;;;;;;18.50;45.80;;;;;;10370780;28;1909;-71
2023/04/14 06:13:42;;;;;;;;;;;18.50;45.80;;;;;;10371999;28;760;-71
2023/04/14 06:18:37;;;;;;;;;;;18.50;45.80;;;;;;10371197;28;775;-73
2023/04/14 06:23:33;;;;;;;;;;;18.40;45.80;;;;;;10370892;28;1209;-72
2023/04/14 06:28:28;;;;;;;;;;;18.40;45.90;;;;;;10370081;28;1902;-73
2023/04/14 06:33:23;;;;;;;;;;;18.30;45.80;;;;;;10370028;28;926;-73
2023/04/14 06:38:19;;;;;;;;;;;18.40;46.00;;;;;;10370386;28;969;-72
2023/04/14 06:43:16;;;;;;;;;;;18.50;46.00;;;;;;10370201;28;805;-72
2023/04/14 06:48:12;;;;;;;;;;;18.50;46.00;;;;;;10369893;28;1976;-72
2023/04/14 06:53:08;;;;;;;;;;;18.50;46.00;;;;;;10369785;28;1038;-72
2023/04/14 06:58:03;;;;;;;;;;;18.60;46.20;;;;;;10369762;28;1113;-73
2023/04/14 07:02:58;;;;;;;;;;;18.50;46.10;;;;;;10368568;28;781;-73
2023/04/14 07:07:54;;;;;;;;;;;18.50;46.10;;;;;;10369923;28;1910;-73
2023/04/14 07:12:49;;;;;;;;;;;18.50;46.20;;;;;;10369261;28;948;-72
2023/04/14 07:17:45;;;;;;;;;;;18.50;46.30;;;;;;10368302;28;847;-72
2023/04/14 07:22:40;;;;;;;;;;;18.50;46.20;;;;;;10368720;28;767;-73
2023/04/14 07:27:35;;;;;;;;;;;18.50;46.40;;;;;;10369535;28;1901;-73
2023/04/14 07:32:31;;;;;;;;;;;18.50;46.30;;;;;;10368870;28;851;-72
2023/04/14 07:37:27;;;;;;;;;;;18.50;46.30;;;;;;10368715;28;865;-73
2023/04/14 07:42:22;;;;;;;;;;;18.60;46.40;;;;;;10368710;28;889;-71
2023/04/14 07:47:17;;;;;;;;;;;18.50;46.40;;;;;;10367732;28;1906;-71
2023/04/14 07:52:13;;;;;;;;;;;18.50;46.40;;;;;;10367635;28;809;-71
2023/04/14 07:57:09;;;;;;;;;;;18.50;46.20;;;;;;10368311;28;1172;-71
2023/04/14 08:02:05;;;;;;;;;;;18.50;46.20;;;;;;10367239;28;845;-72
2023/04/14 08:07:00;;;;;;;;;;;18.40;46.10;;;;;;10366606;28;1914;-72
2023/04/14 08:11:56;;;;;;;;;;;18.50;46.20;;;;;;10367559;28;783;-72
2023/04/14 08:16:51;;;;;;;;;;;18.50;46.20;;;;;;10365909;28;882;-79
2023/04/14 08:21:47;;;;;;;;;;;18.60;46.10;;;;;;10366765;28;940;-71
2023/04/14 08:26:42;;;;;;;;;;;18.50;46.10;;;;;;10366545;28;1910;-72
2023/04/14 08:31:38;;;;;;;;;;;18.50;46.10;;;;;;10366047;28;897;-72
2023/04/14 08:36:33;;;;;;;;;;;18.50;46.10;;;;;;10366401;28;871;-71
2023/04/14 08:41:28;;;;;;;;;;;18.60;46.10;;;;;;10365732;28;841;-71
2023/04/14 08:46:24;;;;;;;;;;;18.60;46.70;;;;;;10366178;28;941;-72
2023/04/14 08:51:19;;;;;;;;;;;18.60;47.00;;;;;;10366673;28;1898;-79
2023/04/14 08:56:15;;;;;;;;;;;18.60;47.00;;;;;;10366547;28;1316;-81
2023/04/14 09:01:10;;;;;;;;;;;18.50;46.90;;;;;;10365973;28;818;-81
2023/04/14 09:06:06;;;;;;;;;;;18.50;46.80;;;;;;10365863;28;891;-79
2023/04/14 09:11:02;;;;;;;;;;;18.50;46.80;;;;;;10365704;28;1902;-82
2023/04/14 09:15:58;;;;;;;;;;;18.40;46.80;;;;;;10366535;28;970;-82
2023/04/14 09:20:54;;;;;;;;;;;18.40;46.80;;;;;;10365559;28;996;-80
2023/04/14 09:25:50;;;;;;;;;;;18.30;46.60;;;;;;10367439;28;902;-77
2023/04/14 09:30:45;;;;;;;;;;;18.40;46.70;;;;;;10372970;28;1961;-77
2023/04/14 09:35:41;;;;;;;;;;;18.40;46.70;;;;;;10372973;28;786;-77
2023/04/14 09:40:37;;;;;;;;;;;18.40;47.20;;;;;;10373360;28;936;-68
2023/04/14 09:45:33;;;;;;;;;;;18.40;46.50;;;;;;10372504;28;898;-70
2023/04/14 09:50:28;;;;;;;;;;;18.50;46.60;;;;;;10373011;28;2011;-71
2023/04/14 09:55:24;;;;;;;;;;;18.60;46.50;;;;;;10372545;28;1421;-70
2023/04/14 10:00:21;;;;;;;;;;;18.50;46.30;;;;;;10372561;28;814;-67
2023/04/14 10:05:16;;;;;;;;;;;18.60;46.40;;;;;;10372377;28;849;-67
2023/04/14 10:10:14;;;;;;;;;;;18.50;46.30;;;;;;10372115;28;1914;-67
2023/04/14 10:15:09;;;;;;;;;;;18.50;46.30;;;;;;10372586;28;916;-67
2023/04/14 10:20:09;;;;;;;;;;;18.50;46.30;;;;;;10371527;28;803;-67
2023/04/14 10:25:04;;;;;;;;;;;18.40;46.20;;;;;;10370790;28;985;-67
2023/04/14 10:30:00;;;;;;;;;;;18.50;46.00;;;;;;10371362;28;1965;-69
2023/04/14 10:34:56;;;;;;;;;;;18.50;45.90;;;;;;10369974;28;1134;-69
2023/04/14 10:39:52;;;;;;;;;;;18.60;46.00;;;;;;10369409;28;902;-69
2023/04/14 10:44:47;;;;;;;;;;;18.60;45.90;;;;;;10370146;28;870;-70
2023/04/14 10:49:43;;;;;;;;;;;18.60;45.90;;;;;;10370572;28;1971;-70
2023/04/14 10:54:38;;;;;;;;;;;18.70;46.00;;;;;;10369731;28;1014;-71
2023/04/14 10:59:34;;;;;;;;;;;18.70;46.20;;;;;;10370416;28;865;-70
2023/04/14 11:04:29;;;;;;;;;;;18.70;46.20;;;;;;10368798;28;1021;-70
2023/04/14 11:09:25;;;;;;;;;;;18.70;46.20;;;;;;10369228;28;1910;-70
2023/04/14 11:14:20;;;;;;;;;;;18.70;46.20;;;;;;10369670;28;894;-69
2023/04/14 11:19:16;;;;;;;;;;;18.70;46.40;;;;;;10368267;28;1186;-79
2023/04/14 11:24:11;;;;;;;;;;;18.70;46.40;;;;;;10369551;28;779;-82
2023/04/14 11:29:07;;;;;;;;;;;18.60;46.50;;;;;;10368435;28;1894;-81
2023/04/14 11:34:02;;;;;;;;;;;18.50;46.50;;;;;;10368281;28;970;-81
2023/04/14 11:38:57;;;;;;;;;;;18.50;46.50;;;;;;10367598;28;853;-81
2023/04/14 11:43:53;;;;;;;;;;;18.50;46.50;;;;;;10367976;28;888;-81
2023/04/14 11:48:48;;;;;;;;;;;18.50;46.50;;;;;;10368180;28;1901;-81
2023/04/14 11:53:43;;;;;;;;;;;18.60;46.40;;;;;;10367035;28;912;-70
2023/04/14 11:58:39;;;;;;;;;;;18.50;46.40;;;;;;10367271;28;1443;-71
2023/04/14 12:03:35;;;;;;;;;;;18.70;47.00;;;;;;10367562;28;829;-70
2023/04/14 12:08:31;;;;;;;;;;;18.80;47.10;;;;;;10367666;28;1909;-70
2023/04/14 12:13:27;;;;;;;;;;;18.80;47.10;;;;;;10367598;28;795;-71
2023/04/14 12:18:22;;;;;;;;;;;18.90;47.20;;;;;;10367381;28;972;-72
2023/04/14 12:23:17;;;;;;;;;;;18.90;47.50;;;;;;10365996;28;1035;-70
2023/04/14 12:28:14;;;;;;;;;;;18.80;47.50;;;;;;10366588;28;1969;-70
2023/04/14 12:33:10;;;;;;;;;;;18.80;47.60;;;;;;10366535;28;869;-70
2023/04/14 12:38:06;;;;;;;;;;;18.90;47.60;;;;;;10366467;28;791;-71
2023/04/14 12:43:01;;;;;;;;;;;18.90;47.60;;;;;;10366309;28;913;-71
2023/04/14 12:47:58;;;;;;;;;;;18.90;47.60;;;;;;10366177;28;1959;-70
2023/04/14 12:52:54;;;;;;;;;;;18.90;47.60;;;;;;10365957;28;891;-70
2023/04/14 12:57:49;;;;;;;;;;;18.90;47.60;;;;;;10366538;28;1246;-72
2023/04/14 13:02:45;;;;;;;;;;;18.80;47.70;;;;;;10370018;28;777;-71
2023/04/14 13:07:40;;;;;;;;;;;18.90;47.70;;;;;;10373845;28;1910;-72
2023/04/14 13:12:35;;;;;;;;;;;18.90;47.70;;;;;;10373651;28;869;-76
2023/04/14 13:17:31;;;;;;;;;;;18.90;47.70;;;;;;10374636;28;935;-74
2023/04/14 13:22:26;;;;;;;;;;;18.90;47.70;;;;;;10373887;28;769;-74
2023/04/14 13:27:22;;;;;;;;;;;18.90;47.60;;;;;;10373009;28;1951;-74
2023/04/14 13:32:17;;;;;;;;;;;19.00;47.50;;;;;;10372929;28;940;-74
2023/04/14 13:37:12;;;;;;;;;;;19.00;47.50;;;;;;10373241;28;822;-74
2023/04/14 13:42:08;;;;;;;;;;;19.00;47.40;;;;;;10372416;28;866;-73
2023/04/14 13:47:03;;;;;;;;;;;19.00;47.30;;;;;;10371654;28;1894;-72
2023/04/14 13:51:59;;;;;;;;;;;19.10;47.40;;;;;;10372235;28;951;-72
2023/04/14 13:56:55;;;;;;;;;;;19.00;47.30;;;;;;10371846;28;1354;-72
2023/04/14 14:01:50;;;;;;;;;;;19.00;47.30;;;;;;10371778;28;1691;-72
2023/04/14 14:06:46;;;;;;;;;;;19.10;47.30;;;;;;10371777;28;932;-67
2023/04/14 14:11:43;;;;;;;;;;;19.10;47.20;;;;;;10370878;28;1913;-72
2023/04/14 14:16:38;;;;;;;;;;;19.10;47.00;;;;;;10370641;28;902;-71
2023/04/14 14:21:34;;;;;;;;;;;19.20;46.90;;;;;;10371203;28;970;-72
2023/04/14 14:26:29;;;;;;;;;;;19.20;46.90;;;;;;10371176;28;857;-72
2023/04/14 14:31:25;;;;;;;;;;;19.20;46.90;;;;;;10370787;28;1897;-72
2023/04/14 14:36:20;;;;;;;;;;;19.20;47.00;;;;;;10371247;28;773;-72
2023/04/14 14:41:16;;;;;;;;;;;19.20;47.10;;;;;;10370451;28;770;-72
2023/04/14 14:46:11;;;;;;;;;;;19.20;47.00;;;;;;10370832;28;849;-72
2023/04/14 14:51:07;;;;;;;;;;;19.20;47.00;;;;;;10370912;28;1969;-72
2023/04/14 14:56:02;;;;;;;;;;;19.30;46.90;;;;;;10370030;28;1315;-72
2023/04/14 15:00:57;;;;;;;;;;;19.30;46.90;;;;;;10369696;28;776;-72
2023/04/14 15:05:53;;;;;;;;;;;19.30;46.80;;;;;;10369476;28;780;-73
2023/04/14 15:10:48;;;;;;;;;;;19.30;46.90;;;;;;10369214;28;1929;-72
2023/04/14 15:15:43;;;;;;;;;;;19.20;46.90;;;;;;10369137;28;944;-72
2023/04/14 15:20:39;;;;;;;;;;;19.30;46.90;;;;;;10369483;28;884;-72
2023/04/14 15:25:34;;;;;;;;;;;19.20;46.90;;;;;;10369017;28;1057;-72
2023/04/14 15:30:30;;;;;;;;;;;19.20;46.80;;;;;;10368947;28;1975;-72
2023/04/14 15:35:25;;;;;;;;;;;19.20;46.80;;;;;;10368924;28;806;-72
2023/04/14 15:40:20;;;;;;;;;;;19.20;46.90;;;;;;10368771;28;1042;-72
2023/04/14 15:45:16;;;;;;;;;;;19.20;46.90;;;;;;10367369;28;867;-73
2023/04/14 15:50:11;;;;;;;;;;;19.20;47.00;;;;;;10367716;28;1918;-72
2023/04/14 15:55:06;;;;;;;;;;;19.20;46.90;;;;;;10367322;28;1299;-72
2023/04/14 16:00:03;;;;;;;;;;;19.20;46.90;;;;;;10366884;28;925;-72
2023/04/14 16:04:58;;;;;;;;;;;19.20;46.90;;;;;;10367558;28;825;-72
2023/04/14 16:09:54;;;;;;;;;;;19.20;47.00;;;;;;10367072;28;1977;-72
2023/04/14 16:14:53;;;;;;;;;;;19.20;46.90;;;;;;10367576;28;853;-72
2023/04/14 16:19:48;;;;;;;;;;;19.20;46.90;;;;;;10366811;28;894;-80
2023/04/14 16:24:44;;;;;;;;;;;19.20;47.00;;;;;;10367323;28;1356;-71
2023/04/14 16:29:40;;;;;;;;;;;19.20;46.90;;;;;;10365875;28;1967;-72
2023/04/14 16:34:35;;;;;;;;;;;19.20;46.90;;;;;;10366277;28;837;-72
2023/04/14 16:39:31;;;;;;;;;;;19.20;46.90;;;;;;10365215;28;913;-72
2023/04/14 16:44:26;;;;;;;;;;;19.10;46.90;;;;;;10366292;28;949;-72
2023/04/14 16:49:21;;;;;;;;;;;19.20;47.00;;;;;;10366524;28;1906;-72
2023/04/14 16:54:17;;;;;;;;;;;19.20;47.00;;;;;;10366870;28;1004;-72
2023/04/14 16:59:12;;;;;;;;;;;19.10;46.90;;;;;;10366566;28;1266;-72
2023/04/14 17:04:08;;;;;;;;;;;19.10;46.90;;;;;;10365938;28;862;-72
2023/04/14 17:09:03;;;;;;;;;;;19.10;46.90;;;;;;10366078;28;1913;-72
2023/04/14 17:13:58;;;;;;;;;;;19.20;46.90;;;;;;10365758;28;834;-72
2023/04/14 17:18:56;;;;;;;;;;;19.20;46.90;;;;;;10366297;28;863;-72
2023/04/14 17:23:51;;;;;;;;;;;19.20;46.90;;;;;;10365551;28;894;-71
2023/04/14 17:28:47;;;;;;;;;;;19.20;46.90;;;;;;10364771;28;1905;-72
2023/04/14 17:33:42;;;;;;;;;;;19.20;46.70;;;;;;10365333;28;928;-72
2023/04/14 17:38:39;;;;;;;;;;;19.20;46.70;;;;;;10365226;28;976;-72
2023/04/14 17:43:38;;;;;;;;;;;19.20;46.60;;;;;;10365794;28;853;-72
2023/04/14 17:48:33;;;;;;;;;;;19.20;46.60;;;;;;10369181;28;1965;-72
2023/04/14 17:53:29;;;;;;;;;;;19.30;46.70;;;;;;10372381;28;777;-72
2023/04/14 17:58:25;;;;;;;;;;;19.20;46.60;;;;;;10371954;28;1318;-72
2023/04/14 18:03:21;;;;;;;;;;;19.20;46.70;;;;;;10371457;28;844;-72
2023/04/14 18:08:16;;;;;;;;;;;19.20;46.70;;;;;;10372357;28;1921;-72
2023/04/14 18:13:12;;;;;;;;;;;19.30;46.70;;;;;;10371588;28;828;-72
2023/04/14 18:18:07;;;;;;;;;;;19.20;46.70;;;;;;10371642;28;787;-72
2023/04/14 18:23:04;;;;;;;;;;;19.30;46.70;;;;;;10371800;28;863;-72
2023/04/14 18:27:59;;;;;;;;;;;19.30;46.70;;;;;;10371548;28;1909;-72
2023/04/14 18:32:54;;;;;;;;;;;19.20;46.80;;;;;;10371478;28;845;-71
2023/04/14 18:37:50;;;;;;;;;;;19.30;46.70;;;;;;10370714;28;908;-72
2023/04/14 18:42:47;;;;;;;;;;;19.30;46.70;;;;;;10371007;28;851;-72
2023/04/14 18:47:44;;;;;;;;;;;19.30;46.70;;;;;;10370843;28;1971;-72
2023/04/14 18:52:40;;;;;;;;;;;19.30;46.70;;;;;;10370108;28;923;-72
2023/04/14 18:57:35;;;;;;;;;;;19.30;46.60;;;;;;10369202;28;1274;-72
2023/04/14 19:02:33;;;;;;;;;;;19.30;46.70;;;;;;10369641;28;854;-72
2023/04/14 19:07:28;;;;;;;;;;;19.30;46.60;;;;;;10369385;28;1989;-72
2023/04/14 19:12:24;;;;;;;;;;;19.30;46.60;;;;;;10369293;28;944;-72
2023/04/14 19:17:19;;;;;;;;;;;19.30;46.60;;;;;;10369073;28;819;-72
2023/04/14 19:22:15;;;;;;;;;;;19.30;46.70;;;;;;10368915;28;880;-73
2023/04/14 19:27:11;;;;;;;;;;;19.30;46.60;;;;;;10369464;28;1973;-72
2023/04/14 19:32:06;;;;;;;;;;;19.30;46.60;;;;;;10368540;28;876;-72
2023/04/14 19:37:04;;;;;;;;;;;19.30;46.60;;;;;;10368912;28;878;-71
2023/04/14 19:42:00;;;;;;;;;;;19.30;46.60;;;;;;10368151;28;790;-72
2023/04/14 19:46:55;;;;;;;;;;;19.30;46.70;;;;;;10368503;28;934;-72
2023/04/14 19:51:51;;;;;;;;;;;19.30;46.70;;;;;;10367726;28;1910;-72
2023/04/14 19:56:46;;;;;;;;;;;19.20;46.50;;;;;;10367499;28;1307;-72
2023/04/14 20:01:43;;;;;;;;;;;19.30;46.60;;;;;;10367408;28;944;-72
2023/04/14 20:06:39;;;;;;;;;;;19.20;46.50;;;;;;10367432;28;910;-72
2023/04/14 20:11:34;;;;;;;;;;;19.20;46.60;;;;;;10367036;28;1917;-70
2023/04/14 20:16:29;;;;;;;;;;;19.20;46.60;;;;;;10367025;28;859;-70
2023/04/14 20:21:26;;;;;;;;;;;19.20;46.60;;;;;;10366988;28;857;-73
2023/04/14 20:26:21;;;;;;;;;;;19.10;46.50;;;;;;10367339;28;873;-72
2023/04/14 20:31:17;;;;;;;;;;;19.20;46.40;;;;;;10366535;28;1909;-72
2023/04/14 20:36:13;;;;;;;;;;;19.10;46.30;;;;;;10365880;28;933;-82
2023/04/14 20:41:08;;;;;;;;;;;19.10;46.20;;;;;;10348979;28;864;-79
2023/04/14 20:46:04;;;;;;;;;;;19.10;46.20;;;;;;10366911;28;814;-83
2023/04/14 20:51:00;;;;;;;;;;;19.10;46.20;;;;;;10366242;28;1887;-84
2023/04/14 20:55:55;;;;;;;;;;;19.20;46.30;;;;;;10366281;28;1147;-84
2023/04/14 21:00:51;;;;;;;;;;;19.10;46.10;;;;;;10366042;28;843;-83
2023/04/14 21:05:46;;;;;;;;;;;19.10;46.20;;;;;;10365963;28;874;-83
2023/04/14 21:10:42;;;;;;;;;;;19.10;46.20;;;;;;10365752;28;1973;-84
2023/04/14 21:15:37;;;;;;;;;;;19.10;46.20;;;;;;10365778;28;854;-84
2023/04/14 21:20:33;;;;;;;;;;;19.10;46.20;;;;;;10365838;28;892;-83
2023/04/14 21:25:28;;;;;;;;;;;19.10;46.20;;;;;;10372390;28;926;-83
2023/04/14 21:30:23;;;;;;;;;;;19.10;46.20;;;;;;10373762;28;1939;-83
2023/04/14 21:35:19;;;;;;;;;;;19.10;46.20;;;;;;10373143;28;873;-83
2023/04/14 21:40:14;;;;;;;;;;;19.10;46.20;;;;;;10373528;28;837;-83
2023/04/14 21:45:10;;;;;;;;;;;19.10;46.20;;;;;;10373009;28;936;-83
2023/04/14 21:50:06;;;;;;;;;;;19.10;46.10;;;;;;10373117;28;1964;-83
2023/04/14 21:55:01;;;;;;;;;;;19.10;46.20;;;;;;10372871;28;1392;-84
2023/04/14 21:59:57;;;;;;;;;;;19.10;46.20;;;;;;10372918;28;833;-84
2023/04/14 22:04:52;;;;;;;;;;;19.10;46.20;;;;;;10372009;28;793;-83
2023/04/14 22:09:48;;;;;;;;;;;19.10;46.10;;;;;;10372016;28;1977;-83
2023/04/14 22:14:44;;;;;;;;;;;19.10;46.20;;;;;;10371633;28;888;-84
2023/04/14 22:19:39;;;;;;;;;;;19.10;46.20;;;;;;10371504;28;832;-84
2023/04/14 22:24:34;;;;;;;;;;;19.10;46.20;;;;;;10371246;28;969;-83
2023/04/14 22:29:30;;;;;;;;;;;19.10;46.10;;;;;;10371021;28;1971;-83
2023/04/14 22:34:25;;;;;;;;;;;19.10;46.20;;;;;;10370267;28;809;-84
2023/04/14 22:39:21;;;;;;;;;;;19.10;46.10;;;;;;10370640;28;887;-84
2023/04/14 22:44:16;;;;;;;;;;;19.10;46.20;;;;;;10370512;28;938;-83
2023/04/14 22:49:11;;;;;;;;;;;19.10;46.20;;;;;;10370217;28;1913;-84
2023/04/14 22:54:07;;;;;;;;;;;19.10;46.70;;;;;;10369852;28;1078;-84
2023/04/14 22:59:02;;;;;;;;;;;19.10;46.20;;;;;;10369879;28;1450;-83
2023/04/14 23:03:58;;;;;;;;;;;19.00;46.10;;;;;;10370284;28;955;-84
2023/04/14 23:08:53;;;;;;;;;;;19.00;46.00;;;;;;10369404;28;1914;-83
2023/04/14 23:13:49;;;;;;;;;;;19.10;46.10;;;;;;10370211;28;859;-84
2023/04/14 23:18:48;;;;;;;;;;;19.10;46.20;;;;;;10369142;28;787;-84
2023/04/14 23:23:44;;;;;;;;;;;19.00;46.10;;;;;;10368816;28;1232;-84
2023/04/14 23:28:39;;;;;;;;;;;19.00;46.00;;;;;;10368676;28;1905;-84
2023/04/14 23:33:34;;;;;;;;;;;19.00;46.00;;;;;;10368519;28;797;-83
2023/04/14 23:38:30;;;;;;;;;;;19.10;46.10;;;;;;10368496;28;866;-84
2023/04/14 23:43:26;;;;;;;;;;;19.00;46.00;;;;;;10368173;28;953;-84
2023/04/14 23:48:21;;;;;;;;;;;19.10;46.00;;;;;;10367488;28;1910;-84
2023/04/14 23:53:17;;;;;;;;;;;19.10;46.30;;;;;;10367797;28;920;-83
2023/04/14 23:58:12;;;;;;;;;;;19.00;46.00;;;;;;10367126;28;1279;-84
